createdAt,value
2018-05-24T00:01:37.257Z,99.90
2018-05-24T00:04:03.741Z,99.90
2018-05-24T00:06:30.171Z,99.90
2018-05-24T00:08:56.597Z,99.90
2018-05-24T00:11:22.980Z,99.90
2018-05-24T00:13:50.148Z,99.90
2018-05-24T00:16:17.321Z,99.90
2018-05-24T00:18:44.455Z,99.90
2018-05-24T00:21:10.851Z,99.90
2018-05-24T00:23:37.270Z,99.90
2018-05-24T00:26:03.693Z,99.90
2018-05-24T00:28:30.131Z,99.90
2018-05-24T00:30:57.318Z,99.90
2018-05-24T00:33:23.752Z,99.90
2018-05-24T00:35:50.197Z,99.90
2018-05-24T00:38:19.475Z,99.90
2018-05-24T00:40:45.922Z,99.90
2018-05-24T00:43:12.387Z,99.90
2018-05-24T00:45:38.816Z,99.90
2018-05-24T00:48:05.238Z,99.90
2018-05-24T00:50:32.414Z,99.90
2018-05-24T00:52:58.922Z,99.90
2018-05-24T00:55:37.704Z,99.90
2018-05-24T00:58:04.911Z,99.90
2018-05-24T01:00:31.328Z,99.90
2018-05-24T01:02:57.773Z,99.90
2018-05-24T01:05:24.919Z,99.90
2018-05-24T01:07:51.346Z,99.90
2018-05-24T01:10:17.907Z,99.90
2018-05-24T01:12:44.358Z,99.90
2018-05-24T01:15:10.781Z,99.90
2018-05-24T01:17:37.951Z,99.90
2018-05-24T01:20:04.440Z,99.90
2018-05-24T01:22:30.834Z,99.90
2018-05-24T01:24:57.259Z,99.90
2018-05-24T01:27:23.692Z,99.90
2018-05-24T01:29:50.944Z,99.90
2018-05-24T01:32:19.233Z,99.90
2018-05-24T01:34:46.410Z,99.90
2018-05-24T01:37:25.965Z,99.90
2018-05-24T01:39:53.244Z,99.90
2018-05-24T01:42:20.417Z,99.90
2018-05-24T01:44:47.638Z,99.90
2018-05-24T01:47:14.092Z,99.90
2018-05-24T01:49:40.533Z,99.90
2018-05-24T01:52:06.957Z,99.90
2018-05-24T01:54:33.364Z,99.90
2018-05-24T01:56:59.799Z,99.90
2018-05-24T01:59:26.333Z,99.90
2018-05-24T02:01:52.738Z,99.90
2018-05-24T02:04:19.838Z,99.90
2018-05-24T02:06:46.286Z,99.90
2018-05-24T02:09:12.751Z,99.90
2018-05-24T02:11:39.170Z,99.90
2018-05-24T02:14:05.617Z,99.90
2018-05-24T02:16:32.084Z,99.90
2018-05-24T02:18:58.527Z,99.90
2018-05-24T02:21:25.050Z,99.90
2018-05-24T02:23:52.290Z,99.90
2018-05-24T02:26:18.700Z,99.90
2018-05-24T02:28:45.162Z,99.90
2018-05-24T02:31:11.668Z,99.90
2018-05-24T02:33:38.151Z,99.90
2018-05-24T02:36:04.787Z,99.90
2018-05-24T02:38:31.160Z,99.90
2018-05-24T02:40:58.322Z,99.90
2018-05-24T02:43:25.480Z,99.90
2018-05-24T02:45:51.900Z,99.90
2018-05-24T02:48:18.307Z,99.90
2018-05-24T02:50:45.494Z,99.90
2018-05-24T02:53:12.615Z,99.90
2018-05-24T02:55:39.035Z,99.90
2018-05-24T02:58:05.446Z,99.90
2018-05-24T03:00:31.890Z,99.90
2018-05-24T03:02:58.314Z,99.90
2018-05-24T03:05:24.742Z,99.90
2018-05-24T03:07:52.020Z,99.90
2018-05-24T03:10:18.451Z,99.90
2018-05-24T03:12:45.626Z,99.90
2018-05-24T03:15:12.036Z,99.90
2018-05-24T03:17:39.201Z,99.90
2018-05-24T03:20:05.703Z,99.90
2018-05-24T03:22:32.166Z,99.90
2018-05-24T03:25:00.035Z,99.90
2018-05-24T03:27:26.634Z,99.90
2018-05-24T03:29:53.776Z,99.90
2018-05-24T03:32:20.201Z,99.90
2018-05-24T03:34:46.623Z,99.90
2018-05-24T03:37:13.055Z,99.90
2018-05-24T03:39:40.209Z,99.90
2018-05-24T03:42:06.619Z,99.90
2018-05-24T03:44:33.052Z,99.90
2018-05-24T03:47:00.203Z,99.90
2018-05-24T03:49:26.646Z,99.90
2018-05-24T03:51:53.096Z,99.90
2018-05-24T03:54:19.598Z,99.90
2018-05-24T03:56:46.769Z,99.90
2018-05-24T04:02:35.627Z,99.90
2018-05-24T04:05:02.897Z,99.90
2018-05-24T04:07:30.041Z,99.90
2018-05-24T04:09:56.502Z,99.90
2018-05-24T04:12:22.902Z,99.90
2018-05-24T04:14:49.324Z,99.90
2018-05-24T04:17:15.751Z,99.90
2018-05-24T04:19:42.194Z,99.90
2018-05-24T04:22:08.623Z,99.90
2018-05-24T04:24:35.052Z,99.90
2018-05-24T04:27:02.333Z,99.90
2018-05-24T04:29:28.704Z,99.90
2018-05-24T04:31:55.250Z,99.90
2018-05-24T04:34:22.529Z,99.90
2018-05-24T04:36:49.084Z,99.90
2018-05-24T04:39:15.528Z,99.90
2018-05-24T04:41:42.739Z,99.90
2018-05-24T04:44:09.579Z,99.90
2018-05-24T04:46:36.835Z,99.90
2018-05-24T04:49:04.014Z,99.90
2018-05-24T04:51:31.203Z,99.90
2018-05-24T04:53:57.636Z,99.90
2018-05-24T04:56:24.078Z,99.90
2018-05-24T04:58:50.504Z,99.90
2018-05-24T05:01:17.138Z,99.90
2018-05-24T05:03:44.911Z,99.90
2018-05-24T05:06:12.083Z,99.90
2018-05-24T05:08:39.304Z,99.90
2018-05-24T05:11:05.878Z,99.90
2018-05-24T05:13:32.342Z,99.90
2018-05-24T05:15:58.792Z,99.90
2018-05-24T05:18:25.198Z,99.90
2018-05-24T05:20:51.741Z,99.90
2018-05-24T05:23:18.347Z,99.90
2018-05-24T05:25:45.487Z,99.90
2018-05-24T05:28:11.913Z,99.90
2018-05-24T05:30:39.148Z,99.90
2018-05-24T05:33:05.561Z,99.90
2018-05-24T05:35:32.757Z,99.90
2018-05-24T05:37:59.826Z,99.90
2018-05-24T05:40:26.268Z,99.90
2018-05-24T05:42:52.686Z,99.90
2018-05-24T05:45:19.101Z,99.90
2018-05-24T05:47:45.508Z,99.90
2018-05-24T05:50:12.683Z,99.90
2018-05-24T05:52:39.145Z,99.90
2018-05-24T05:55:06.328Z,99.90
2018-05-24T05:57:33.454Z,99.90
2018-05-24T05:59:59.922Z,99.90
2018-05-24T06:02:26.340Z,99.90
2018-05-24T06:04:52.773Z,99.90
2018-05-24T06:07:19.186Z,99.90
2018-05-24T06:09:45.800Z,99.90
2018-05-24T06:12:12.907Z,99.90
2018-05-24T06:14:39.360Z,99.90
2018-05-24T06:17:05.808Z,99.90
2018-05-24T06:19:33.011Z,99.90
2018-05-24T06:21:59.452Z,99.90
2018-05-24T06:24:25.929Z,99.90
2018-05-24T06:26:52.375Z,99.90
2018-05-24T06:29:18.779Z,99.90
2018-05-24T06:31:45.230Z,99.90
2018-05-24T06:34:11.776Z,99.90
2018-05-24T06:36:38.212Z,99.90
2018-05-24T06:39:05.526Z,99.90
2018-05-24T06:41:31.998Z,99.90
2018-05-24T06:43:58.420Z,99.90
2018-05-24T06:46:25.636Z,99.90
2018-05-24T06:48:52.093Z,99.90
2018-05-24T06:51:18.536Z,99.90
2018-05-24T06:53:45.056Z,99.90
2018-05-24T06:56:11.517Z,99.90
2018-05-24T06:58:38.796Z,99.90
2018-05-24T07:01:05.255Z,99.90
2018-05-24T07:03:31.736Z,99.90
2018-05-24T07:05:58.316Z,99.90
2018-05-24T07:08:24.849Z,99.90
2018-05-24T07:10:51.315Z,99.90
2018-05-24T07:13:17.803Z,99.90
2018-05-24T07:15:44.240Z,99.90
2018-05-24T07:18:10.709Z,99.90
2018-05-24T07:20:37.163Z,99.90
2018-05-24T07:23:04.345Z,99.90
2018-05-24T07:25:30.777Z,99.90
2018-05-24T07:27:57.293Z,99.90
2018-05-24T07:30:24.569Z,99.90
2018-05-24T07:32:51.006Z,99.90
2018-05-24T07:35:18.400Z,99.90
2018-05-24T07:37:45.553Z,99.90
2018-05-24T07:40:12.848Z,99.90
2018-05-24T07:42:40.024Z,99.90
2018-05-24T07:45:06.463Z,99.90
2018-05-24T07:47:32.847Z,99.90
2018-05-24T07:49:59.388Z,99.90
2018-05-24T07:52:26.595Z,99.90
2018-05-24T07:54:53.206Z,99.90
2018-05-24T07:57:19.680Z,99.90
2018-05-24T07:59:46.104Z,99.90
2018-05-24T08:02:13.293Z,99.90
2018-05-24T08:04:40.455Z,99.90
2018-05-24T08:07:06.876Z,99.90
2018-05-24T08:09:34.107Z,99.90
2018-05-24T08:12:01.289Z,99.90
2018-05-24T08:14:27.839Z,99.90
2018-05-24T08:16:55.009Z,99.90
2018-05-24T08:19:22.182Z,99.90
2018-05-24T08:21:49.355Z,99.90
2018-05-24T08:24:15.811Z,99.90
2018-05-24T08:26:42.955Z,99.10
2018-05-24T08:29:09.443Z,99.00
2018-05-24T08:31:36.661Z,96.50
2018-05-24T08:34:03.818Z,96.70
2018-05-24T08:36:30.275Z,96.70
2018-05-24T08:38:56.713Z,97.10
2018-05-24T08:41:23.173Z,97.60
2018-05-24T08:43:49.637Z,97.80
2018-05-24T08:46:16.101Z,96.90
2018-05-24T08:48:42.626Z,96.80
2018-05-24T08:51:09.900Z,97.00
2018-05-24T08:53:36.306Z,97.00
2018-05-24T08:56:02.749Z,97.60
2018-05-24T08:58:29.269Z,97.50
2018-05-24T09:00:57.083Z,98.00
2018-05-24T09:03:23.512Z,98.00
2018-05-24T09:05:50.716Z,97.90
2018-05-24T09:08:17.200Z,97.90
2018-05-24T09:10:43.596Z,98.10
2018-05-24T09:13:10.766Z,98.50
2018-05-24T09:15:38.045Z,98.40
2018-05-24T09:18:04.525Z,98.40
2018-05-24T09:20:31.059Z,98.70
2018-05-24T09:22:57.617Z,98.60
2018-05-24T09:25:24.085Z,97.80
2018-05-24T09:27:50.530Z,97.50
2018-05-24T09:31:19.366Z,96.70
2018-05-24T09:33:46.543Z,96.40
2018-05-24T09:36:13.735Z,95.80
2018-05-24T09:38:40.164Z,95.90
2018-05-24T09:41:07.179Z,95.10
2018-05-24T09:43:33.614Z,94.00
2018-05-24T09:46:00.636Z,94.60
2018-05-24T09:48:27.227Z,93.10
2018-05-24T09:50:54.376Z,91.70
2018-05-24T09:53:21.569Z,91.70
2018-05-24T09:55:48.759Z,91.90
2018-05-24T09:58:15.300Z,91.90
2018-05-24T10:00:42.635Z,91.40
2018-05-24T10:03:09.083Z,91.40
2018-05-24T10:05:35.513Z,90.90
2018-05-24T10:08:44.066Z,91.10
2018-05-24T10:11:11.228Z,91.20
2018-05-24T10:13:37.918Z,91.20
2018-05-24T10:16:04.370Z,91.00
2018-05-24T10:18:30.875Z,91.70
2018-05-24T10:20:57.335Z,90.70
2018-05-24T10:23:23.731Z,91.00
2018-05-24T10:25:50.183Z,91.30
2018-05-24T10:28:17.370Z,90.60
2018-05-24T10:30:44.603Z,90.70
2018-05-24T10:33:11.042Z,90.70
2018-05-24T10:35:37.496Z,91.30
2018-05-24T10:38:04.432Z,90.60
2018-05-24T10:40:30.981Z,90.40
2018-05-24T10:42:58.170Z,88.90
2018-05-24T10:45:24.633Z,88.90
2018-05-24T10:47:51.055Z,89.00
2018-05-24T10:50:18.263Z,89.10
2018-05-24T10:52:44.704Z,89.10
2018-05-24T10:55:11.208Z,89.30
2018-05-24T10:57:37.716Z,89.30
2018-05-24T11:00:04.576Z,89.10
2018-05-24T11:02:31.016Z,88.80
2018-05-24T11:04:57.444Z,89.30
2018-05-24T11:07:23.881Z,88.30
2018-05-24T11:09:51.069Z,88.00
2018-05-24T11:12:18.652Z,88.90
2018-05-24T11:14:45.708Z,85.90
2018-05-24T11:17:12.228Z,86.20
2018-05-24T11:19:38.688Z,85.50
2018-05-24T11:22:05.140Z,85.20
2018-05-24T11:24:33.206Z,84.60
2018-05-24T11:26:59.625Z,84.40
2018-05-24T11:29:26.112Z,83.40
2018-05-24T11:31:52.616Z,82.10
2018-05-24T11:34:19.062Z,80.70
2018-05-24T11:36:45.620Z,80.70
2018-05-24T11:39:12.169Z,77.40
2018-05-24T11:41:38.783Z,77.40
2018-05-24T11:44:05.260Z,79.40
2018-05-24T11:46:31.683Z,80.20
2018-05-24T11:48:58.149Z,79.30
2018-05-24T11:51:24.648Z,77.40
2018-05-24T11:53:51.835Z,79.20
2018-05-24T11:56:18.279Z,79.20
2018-05-24T11:58:45.563Z,80.30
2018-05-24T12:01:12.708Z,81.10
2018-05-24T12:03:39.154Z,80.60
2018-05-24T12:06:07.057Z,78.80
2018-05-24T12:08:33.506Z,78.60
2018-05-24T12:11:00.438Z,79.00
2018-05-24T12:13:26.961Z,79.20
2018-05-24T12:15:54.129Z,77.80
2018-05-24T12:18:21.339Z,78.30
2018-05-24T12:20:47.967Z,78.30
2018-05-24T12:23:14.437Z,80.10
2018-05-24T12:25:40.862Z,80.00
2018-05-24T12:28:08.083Z,80.30
2018-05-24T12:30:34.612Z,80.30
2018-05-24T12:33:01.043Z,79.70
2018-05-24T12:35:27.612Z,79.70
2018-05-24T12:37:54.031Z,78.50
2018-05-24T12:40:20.469Z,78.50
2018-05-24T12:42:46.951Z,77.70
2018-05-24T12:45:13.417Z,77.60
2018-05-24T12:47:39.906Z,76.90
2018-05-24T12:50:07.091Z,74.00
2018-05-24T12:52:33.644Z,74.00
2018-05-24T12:55:00.197Z,72.70
2018-05-24T12:57:26.635Z,72.50
2018-05-24T12:59:53.849Z,72.30
2018-05-24T13:02:20.346Z,71.50
2018-05-24T13:04:46.769Z,71.80
2018-05-24T13:07:13.398Z,71.60
2018-05-24T13:09:40.980Z,70.50
2018-05-24T13:12:07.794Z,70.50
2018-05-24T13:14:34.318Z,69.10
2018-05-24T13:17:01.031Z,68.10
2018-05-24T13:19:27.809Z,68.10
2018-05-24T13:21:54.219Z,68.70
2018-05-24T13:24:20.670Z,67.70
2018-05-24T13:26:47.198Z,66.80
2018-05-24T13:29:14.902Z,68.70
2018-05-24T13:31:41.381Z,68.70
2018-05-24T13:34:07.857Z,68.40
2018-05-24T13:36:34.329Z,67.60
2018-05-24T13:39:00.771Z,68.40
2018-05-24T13:41:27.209Z,69.40
2018-05-24T13:43:53.721Z,70.10
2018-05-24T13:46:20.996Z,72.00
2018-05-24T13:48:48.176Z,73.50
2018-05-24T13:51:14.830Z,73.30
2018-05-24T13:53:41.293Z,74.60
2018-05-24T13:56:08.437Z,76.50
2018-05-24T13:58:35.117Z,76.50
2018-05-24T14:01:02.343Z,77.20
2018-05-24T14:03:28.761Z,77.20
2018-05-24T14:05:55.243Z,77.80
2018-05-24T14:08:21.839Z,77.60
2018-05-24T14:10:48.282Z,77.90
2018-05-24T14:13:14.778Z,78.70
2018-05-24T14:15:42.172Z,79.20
2018-05-24T14:18:08.719Z,79.20
2018-05-24T14:20:35.169Z,79.70
2018-05-24T14:23:02.344Z,80.30
2018-05-24T14:25:29.605Z,80.70
2018-05-24T14:27:56.075Z,80.60
2018-05-24T14:30:22.555Z,80.70
2018-05-24T14:32:49.091Z,81.20
2018-05-24T14:35:15.648Z,81.90
2018-05-24T14:37:42.929Z,84.20
2018-05-24T14:40:09.370Z,84.30
2018-05-24T14:42:36.554Z,89.40
2018-05-24T14:45:04.348Z,90.80
2018-05-24T14:47:30.921Z,90.70
2018-05-24T14:49:57.345Z,92.20
2018-05-24T14:52:24.522Z,92.20
2018-05-24T14:54:51.864Z,91.60
2018-05-24T14:57:18.291Z,91.60
2018-05-24T14:59:45.319Z,92.10
2018-05-24T15:02:12.599Z,92.20
2018-05-24T15:04:39.875Z,92.10
2018-05-24T15:07:06.431Z,92.10
2018-05-24T15:09:33.787Z,92.70
2018-05-24T15:12:00.223Z,92.70
2018-05-24T15:14:28.166Z,92.70
2018-05-24T15:16:54.639Z,92.70
2018-05-24T15:19:21.069Z,92.60
2018-05-24T15:21:48.244Z,92.60
2018-05-24T15:24:14.798Z,92.60
2018-05-24T15:26:41.247Z,92.40
2018-05-24T15:29:08.460Z,91.80
2018-05-24T15:31:34.940Z,91.80
2018-05-24T15:34:01.422Z,92.00
2018-05-24T15:36:28.632Z,92.40
2018-05-24T15:38:55.088Z,92.30
2018-05-24T15:41:21.571Z,92.20
2018-05-24T15:43:48.051Z,91.70
2018-05-24T15:46:14.499Z,91.00
2018-05-24T15:48:40.997Z,90.00
2018-05-24T15:51:08.178Z,90.20
2018-05-24T15:53:34.728Z,90.20
2018-05-24T15:56:01.183Z,90.80
2018-05-24T15:58:28.363Z,89.60
2018-05-24T16:00:54.792Z,89.60
2018-05-24T16:03:22.075Z,88.90
2018-05-24T16:05:49.364Z,90.10
2018-05-24T16:08:15.822Z,89.40
2018-05-24T16:10:42.378Z,90.00
2018-05-24T16:13:09.045Z,90.10
2018-05-24T16:15:35.523Z,90.50
2018-05-24T16:18:02.331Z,90.50
2018-05-24T16:20:28.810Z,90.50
2018-05-24T16:22:55.479Z,90.50
2018-05-24T16:25:22.757Z,90.70
2018-05-24T16:27:49.243Z,90.80
2018-05-24T16:30:15.707Z,90.70
2018-05-24T16:32:42.304Z,90.70
2018-05-24T16:35:08.782Z,91.20
2018-05-24T16:37:35.249Z,91.20
2018-05-24T16:40:01.797Z,91.20
2018-05-24T16:42:29.020Z,91.20
2018-05-24T16:44:55.469Z,91.20
2018-05-24T16:47:22.009Z,91.20
2018-05-24T16:49:48.473Z,91.10
2018-05-24T16:52:14.962Z,91.20
2018-05-24T16:54:41.433Z,91.00
2018-05-24T16:57:07.922Z,91.20
2018-05-24T16:59:34.374Z,91.00
2018-05-24T17:02:00.827Z,90.90
2018-05-24T17:04:28.309Z,90.80
2018-05-24T17:06:55.460Z,91.00
2018-05-24T17:09:23.299Z,91.10
2018-05-24T17:11:49.975Z,91.10
2018-05-24T17:14:16.584Z,91.20
2018-05-24T17:16:44.124Z,91.90
2018-05-24T17:19:11.439Z,91.90
2018-05-24T17:21:38.662Z,93.10
2018-05-24T17:24:05.173Z,93.20
2018-05-24T17:26:31.616Z,93.70
2018-05-24T17:28:58.795Z,95.00
2018-05-24T17:31:27.308Z,95.90
2018-05-24T17:33:53.763Z,95.90
2018-05-24T17:36:20.184Z,96.70
2018-05-24T17:38:46.589Z,97.20
2018-05-24T17:41:13.229Z,97.50
2018-05-24T17:43:39.665Z,97.90
2018-05-24T17:46:07.403Z,98.70
2018-05-24T17:48:33.838Z,98.70
2018-05-24T17:51:00.338Z,99.10
2018-05-24T17:53:26.872Z,99.40
2018-05-24T17:55:53.391Z,99.80
2018-05-24T17:58:20.777Z,97.80
2018-05-24T18:00:47.233Z,97.80
2018-05-24T18:03:13.858Z,97.10
2018-05-24T18:05:40.349Z,96.80
2018-05-24T18:08:06.794Z,96.60
2018-05-24T18:10:33.962Z,97.00
2018-05-24T18:13:01.208Z,98.00
2018-05-24T18:15:27.653Z,97.60
2018-05-24T18:17:54.165Z,97.70
2018-05-24T18:20:21.441Z,98.30
2018-05-24T18:22:48.728Z,98.60
2018-05-24T18:25:15.193Z,98.60
2018-05-24T18:27:41.748Z,98.80
2018-05-24T18:30:08.294Z,98.80
2018-05-24T18:32:34.745Z,99.10
2018-05-24T18:35:01.930Z,99.50
2018-05-24T18:37:28.393Z,99.50
2018-05-24T18:39:55.139Z,99.80
2018-05-24T18:42:21.589Z,99.70
2018-05-24T18:44:48.950Z,99.90
2018-05-24T18:47:16.920Z,99.90
2018-05-24T18:49:43.423Z,99.90
2018-05-24T18:52:09.982Z,99.90
2018-05-24T18:54:36.447Z,99.90
2018-05-24T18:57:03.103Z,99.90
2018-05-24T18:59:30.553Z,99.90
2018-05-24T19:01:57.836Z,99.90
2018-05-24T19:04:24.249Z,99.90
2018-05-24T19:06:50.760Z,99.90
2018-05-24T19:09:17.953Z,99.90
2018-05-24T19:11:44.493Z,99.90
2018-05-24T19:14:10.999Z,99.90
2018-05-24T19:16:38.217Z,99.90
2018-05-24T19:19:05.398Z,99.90
2018-05-24T19:21:31.863Z,99.90
2018-05-24T19:23:58.315Z,99.90
2018-05-24T19:26:24.818Z,99.90
2018-05-24T19:28:51.312Z,99.90
2018-05-24T19:31:18.596Z,99.90
2018-05-24T19:33:45.811Z,99.90
2018-05-24T19:36:12.259Z,99.90
2018-05-24T19:38:38.785Z,99.90
2018-05-24T19:41:05.275Z,99.90
2018-05-24T19:43:31.745Z,99.90
2018-05-24T19:45:58.197Z,99.90
2018-05-24T19:48:24.621Z,99.90
2018-05-24T19:50:51.378Z,99.90
2018-05-24T19:53:17.813Z,99.90
2018-05-24T19:55:45.034Z,99.90
2018-05-24T19:58:11.969Z,99.90
2018-05-24T20:00:38.451Z,99.90
2018-05-24T20:03:05.034Z,99.90
2018-05-24T20:05:31.525Z,99.90
2018-05-24T20:07:58.735Z,99.90
2018-05-24T20:10:25.376Z,99.90
2018-05-24T20:12:52.650Z,99.90
2018-05-24T20:15:19.889Z,99.90
2018-05-24T20:17:46.373Z,99.90
2018-05-24T20:20:13.657Z,99.90
2018-05-24T20:22:40.129Z,99.90
2018-05-24T20:25:06.669Z,99.90
2018-05-24T20:27:33.945Z,99.90
2018-05-24T20:30:00.452Z,99.90
2018-05-24T20:32:26.899Z,99.90
2018-05-24T20:34:53.415Z,99.90
2018-05-24T20:37:20.606Z,99.90
2018-05-24T20:39:47.148Z,99.90
2018-05-24T20:42:13.586Z,99.90
2018-05-24T20:44:40.087Z,99.90
2018-05-24T20:47:06.520Z,99.90
2018-05-24T20:49:32.971Z,99.90
2018-05-24T20:52:00.174Z,99.90
2018-05-24T20:54:26.640Z,99.90
2018-05-24T20:56:53.126Z,99.90
2018-05-24T20:59:20.365Z,99.90
2018-05-24T21:01:46.941Z,99.90
2018-05-24T21:04:13.447Z,99.90
2018-05-24T21:06:39.860Z,99.90
2018-05-24T21:09:06.316Z,99.90
2018-05-24T21:11:32.922Z,99.90
2018-05-24T21:13:59.449Z,99.90
2018-05-24T21:16:25.837Z,99.90
2018-05-24T21:18:52.293Z,99.90
2018-05-24T21:21:18.751Z,99.90
2018-05-24T21:23:45.196Z,99.90
2018-05-24T21:26:12.475Z,99.90
2018-05-24T21:28:39.652Z,99.90
2018-05-24T21:31:06.084Z,99.90
2018-05-24T21:33:32.533Z,99.90
2018-05-24T21:35:59.613Z,99.90
2018-05-24T21:38:26.766Z,99.90
2018-05-24T21:40:53.252Z,99.90
2018-05-24T21:43:20.411Z,99.90
2018-05-24T21:45:46.872Z,99.90
2018-05-24T21:48:13.358Z,99.90
2018-05-24T21:50:39.807Z,99.90
2018-05-24T21:53:06.283Z,99.90
2018-05-24T21:55:33.795Z,99.90
2018-05-24T22:00:37.684Z,99.90
2018-05-24T22:03:04.885Z,99.90
2018-05-24T22:05:31.364Z,99.90
2018-05-24T22:07:57.866Z,99.90
2018-05-24T22:10:25.158Z,99.90
2018-05-24T22:12:51.681Z,99.90
2018-05-24T22:15:18.166Z,99.90
2018-05-24T22:17:44.729Z,99.90
2018-05-24T22:20:12.008Z,99.90
2018-05-24T22:22:38.434Z,99.90
2018-05-24T22:25:04.904Z,99.90
2018-05-24T22:27:32.092Z,99.90
2018-05-24T22:29:59.244Z,99.90
2018-05-24T22:32:25.639Z,99.90
2018-05-24T22:34:52.179Z,99.90
2018-05-24T22:37:18.613Z,99.90
2018-05-24T22:39:45.044Z,99.90
2018-05-24T22:42:11.991Z,99.90
2018-05-24T22:44:38.389Z,99.90
2018-05-24T22:47:04.809Z,99.90
2018-05-24T22:49:31.228Z,99.90
2018-05-24T22:51:57.639Z,99.90
2018-05-24T22:54:24.060Z,99.90
2018-05-24T22:56:50.601Z,99.90
2018-05-24T22:59:17.015Z,99.90
2018-05-24T23:01:43.503Z,99.90
2018-05-24T23:04:10.731Z,99.90
2018-05-24T23:06:37.155Z,99.90
2018-05-24T23:09:03.739Z,99.90
2018-05-24T23:12:09.522Z,99.90
2018-05-24T23:14:36.659Z,99.90
2018-05-24T23:17:03.137Z,99.90
2018-05-24T23:19:30.329Z,99.90
2018-05-24T23:21:57.379Z,99.90
2018-05-24T23:24:24.563Z,99.90
2018-05-24T23:26:51.748Z,99.90
2018-05-24T23:29:18.148Z,99.90
2018-05-24T23:31:44.628Z,99.90
2018-05-24T23:34:11.030Z,99.90
2018-05-24T23:36:37.467Z,99.90
2018-05-24T23:39:04.909Z,99.90
2018-05-24T23:41:32.081Z,99.90
2018-05-24T23:43:58.479Z,99.90
2018-05-24T23:46:25.144Z,99.90
2018-05-24T23:48:51.899Z,99.90
2018-05-24T23:51:18.557Z,99.90
2018-05-24T23:53:44.991Z,99.90
2018-05-24T23:56:11.417Z,99.90
2018-05-24T23:58:37.854Z,99.90
